sensor_id;sensor_type;location;lat;lon;timestamp;P1;durP1;ratioP1;P2;durP2;ratioP2
9374;SDS011;4727;51.202;6.344;2023-03-30T00:01:31;7.07;;;2.70;;
9374;SDS011;4727;51.202;6.344;2023-03-30T00:03:57;4.60;;;2.70;;
9374;SDS011;4727;51.202;6.344;2023-03-30T00:06:23;7.60;;;2.40;;
9374;SDS011;4727;51.202;6.344;2023-03-30T00:08:51;4.43;;;2.57;;
9374;SDS011;4727;51.202;6.344;2023-03-30T00:11:21;4.67;;;2.57;;
9374;SDS011;4727;51.202;6.344;2023-03-30T00:13:47;5.67;;;2.77;;
9374;SDS011;4727;51.202;6.344;2023-03-30T00:16:15;3.70;;;2.60;;
9374;SDS011;4727;51.202;6.344;2023-03-30T00:18:42;5.13;;;2.50;;
9374;SDS011;4727;51.202;6.344;2023-03-30T00:21:11;3.50;;;2.50;;
9374;SDS011;4727;51.202;6.344;2023-03-30T00:23:37;3.83;;;2.63;;
9374;SDS011;4727;51.202;6.344;2023-03-30T00:26:04;3.80;;;2.57;;
9374;SDS011;4727;51.202;6.344;2023-03-30T00:28:31;5.03;;;2.43;;
9374;SDS011;4727;51.202;6.344;2023-03-30T00:30:56;2.73;;;2.23;;
9374;SDS011;4727;51.202;6.344;2023-03-30T00:33:22;4.07;;;2.50;;
9374;SDS011;4727;51.202;6.344;2023-03-30T00:35:51;4.93;;;2.50;;
9374;SDS011;4727;51.202;6.344;2023-03-30T00:38:21;4.10;;;2.53;;
9374;SDS011;4727;51.202;6.344;2023-03-30T00:40:54;3.53;;;2.60;;
9374;SDS011;4727;51.202;6.344;2023-03-30T00:43:22;4.73;;;2.57;;
9374;SDS011;4727;51.202;6.344;2023-03-30T00:45:48;3.70;;;2.57;;
9374;SDS011;4727;51.202;6.344;2023-03-30T00:48:18;5.27;;;3.07;;
9374;SDS011;4727;51.202;6.344;2023-03-30T00:50:55;3.47;;;2.53;;
9374;SDS011;4727;51.202;6.344;2023-03-30T00:53:27;6.13;;;2.70;;
9374;SDS011;4727;51.202;6.344;2023-03-30T00:56:02;3.57;;;2.67;;
9374;SDS011;4727;51.202;6.344;2023-03-30T00:58:31;5.77;;;2.73;;
9374;SDS011;4727;51.202;6.344;2023-03-30T01:00:57;4.53;;;2.60;;
9374;SDS011;4727;51.202;6.344;2023-03-30T01:03:27;3.03;;;2.20;;
9374;SDS011;4727;51.202;6.344;2023-03-30T01:05:59;3.20;;;2.43;;
9374;SDS011;4727;51.202;6.344;2023-03-30T01:08:28;5.17;;;2.67;;
9374;SDS011;4727;51.202;6.344;2023-03-30T01:10:58;6.17;;;2.63;;
9374;SDS011;4727;51.202;6.344;2023-03-30T01:13:28;4.97;;;3.07;;
9374;SDS011;4727;51.202;6.344;2023-03-30T01:16:00;5.67;;;2.23;;
9374;SDS011;4727;51.202;6.344;2023-03-30T01:26:55;5.87;;;2.60;;
9374;SDS011;4727;51.202;6.344;2023-03-30T01:40:47;2.90;;;2.37;;
9374;SDS011;4727;51.202;6.344;2023-03-30T01:46:02;3.17;;;2.47;;
9374;SDS011;4727;51.202;6.344;2023-03-30T01:48:41;5.00;;;3.20;;
9374;SDS011;4727;51.202;6.344;2023-03-30T01:51:19;5.43;;;3.13;;
9374;SDS011;4727;51.202;6.344;2023-03-30T01:53:52;4.83;;;2.90;;
9374;SDS011;4727;51.202;6.344;2023-03-30T01:59:52;4.40;;;2.67;;
9374;SDS011;4727;51.202;6.344;2023-03-30T02:02:16;5.67;;;3.17;;
9374;SDS011;4727;51.202;6.344;2023-03-30T02:04:45;4.77;;;2.67;;
9374;SDS011;4727;51.202;6.344;2023-03-30T02:07:16;5.33;;;2.80;;
9374;SDS011;4727;51.202;6.344;2023-03-30T02:09:46;7.47;;;2.90;;
9374;SDS011;4727;51.202;6.344;2023-03-30T02:12:14;5.73;;;2.33;;
9374;SDS011;4727;51.202;6.344;2023-03-30T02:14:41;4.57;;;2.60;;
9374;SDS011;4727;51.202;6.344;2023-03-30T02:17:14;3.57;;;2.60;;
9374;SDS011;4727;51.202;6.344;2023-03-30T02:19:45;4.30;;;2.10;;
9374;SDS011;4727;51.202;6.344;2023-03-30T02:22:12;5.93;;;2.97;;
9374;SDS011;4727;51.202;6.344;2023-03-30T02:24:43;7.17;;;2.83;;
9374;SDS011;4727;51.202;6.344;2023-03-30T02:27:11;3.80;;;2.70;;
9374;SDS011;4727;51.202;6.344;2023-03-30T02:29:38;4.00;;;2.30;;
9374;SDS011;4727;51.202;6.344;2023-03-30T02:32:10;7.07;;;2.77;;
9374;SDS011;4727;51.202;6.344;2023-03-30T02:37:49;3.33;;;2.40;;
9374;SDS011;4727;51.202;6.344;2023-03-30T02:40:32;4.33;;;2.27;;
9374;SDS011;4727;51.202;6.344;2023-03-30T02:43:10;3.93;;;2.53;;
9374;SDS011;4727;51.202;6.344;2023-03-30T02:46:04;4.93;;;2.60;;
9374;SDS011;4727;51.202;6.344;2023-03-30T02:48:38;4.03;;;2.80;;
9374;SDS011;4727;51.202;6.344;2023-03-30T02:51:27;6.13;;;2.30;;
9374;SDS011;4727;51.202;6.344;2023-03-30T02:56:53;4.43;;;2.70;;
9374;SDS011;4727;51.202;6.344;2023-03-30T02:59:27;4.30;;;2.37;;
9374;SDS011;4727;51.202;6.344;2023-03-30T03:02:04;3.90;;;2.60;;
9374;SDS011;4727;51.202;6.344;2023-03-30T03:04:35;6.37;;;2.87;;
9374;SDS011;4727;51.202;6.344;2023-03-30T03:07:02;8.47;;;3.60;;
9374;SDS011;4727;51.202;6.344;2023-03-30T03:09:28;4.13;;;2.40;;
9374;SDS011;4727;51.202;6.344;2023-03-30T03:11:54;3.60;;;2.97;;
9374;SDS011;4727;51.202;6.344;2023-03-30T03:14:20;5.90;;;2.80;;
9374;SDS011;4727;51.202;6.344;2023-03-30T03:16:46;7.07;;;2.70;;
9374;SDS011;4727;51.202;6.344;2023-03-30T03:19:12;4.97;;;2.63;;
9374;SDS011;4727;51.202;6.344;2023-03-30T03:21:37;6.43;;;2.50;;
9374;SDS011;4727;51.202;6.344;2023-03-30T03:24:03;4.83;;;2.70;;
9374;SDS011;4727;51.202;6.344;2023-03-30T03:26:30;6.90;;;2.90;;
9374;SDS011;4727;51.202;6.344;2023-03-30T03:28:57;3.23;;;2.47;;
9374;SDS011;4727;51.202;6.344;2023-03-30T03:31:23;4.37;;;2.77;;
9374;SDS011;4727;51.202;6.344;2023-03-30T03:33:51;2.43;;;2.23;;
9374;SDS011;4727;51.202;6.344;2023-03-30T03:36:16;5.53;;;2.57;;
9374;SDS011;4727;51.202;6.344;2023-03-30T03:38:43;3.87;;;2.53;;
9374;SDS011;4727;51.202;6.344;2023-03-30T03:41:09;6.67;;;2.63;;
9374;SDS011;4727;51.202;6.344;2023-03-30T03:43:35;5.93;;;3.00;;
9374;SDS011;4727;51.202;6.344;2023-03-30T03:46:00;5.73;;;2.37;;
9374;SDS011;4727;51.202;6.344;2023-03-30T03:48:27;4.80;;;2.50;;
9374;SDS011;4727;51.202;6.344;2023-03-30T03:50:53;4.77;;;2.77;;
9374;SDS011;4727;51.202;6.344;2023-03-30T03:53:21;4.47;;;2.63;;
9374;SDS011;4727;51.202;6.344;2023-03-30T03:55:48;6.83;;;2.90;;
9374;SDS011;4727;51.202;6.344;2023-03-30T03:58:15;3.87;;;2.77;;
9374;SDS011;4727;51.202;6.344;2023-03-30T04:00:41;3.93;;;2.80;;
9374;SDS011;4727;51.202;6.344;2023-03-30T04:03:07;3.80;;;2.67;;
9374;SDS011;4727;51.202;6.344;2023-03-30T04:05:33;6.83;;;2.83;;
9374;SDS011;4727;51.202;6.344;2023-03-30T04:07:59;3.87;;;2.50;;
9374;SDS011;4727;51.202;6.344;2023-03-30T04:10:25;3.83;;;2.77;;
9374;SDS011;4727;51.202;6.344;2023-03-30T04:12:53;5.63;;;2.70;;
9374;SDS011;4727;51.202;6.344;2023-03-30T04:15:20;3.33;;;2.40;;
9374;SDS011;4727;51.202;6.344;2023-03-30T04:17:46;3.43;;;2.73;;
9374;SDS011;4727;51.202;6.344;2023-03-30T04:20:14;3.30;;;2.33;;
9374;SDS011;4727;51.202;6.344;2023-03-30T04:22:41;3.80;;;2.57;;
9374;SDS011;4727;51.202;6.344;2023-03-30T04:25:08;6.30;;;2.83;;
9374;SDS011;4727;51.202;6.344;2023-03-30T04:27:38;7.03;;;3.30;;
9374;SDS011;4727;51.202;6.344;2023-03-30T04:30:07;4.90;;;3.13;;
9374;SDS011;4727;51.202;6.344;2023-03-30T04:32:34;3.60;;;2.60;;
9374;SDS011;4727;51.202;6.344;2023-03-30T04:35:04;5.40;;;2.83;;
9374;SDS011;4727;51.202;6.344;2023-03-30T04:37:31;5.03;;;2.70;;
9374;SDS011;4727;51.202;6.344;2023-03-30T04:39:58;5.90;;;2.77;;
9374;SDS011;4727;51.202;6.344;2023-03-30T04:42:25;6.40;;;3.00;;
9374;SDS011;4727;51.202;6.344;2023-03-30T04:44:54;4.50;;;2.70;;
9374;SDS011;4727;51.202;6.344;2023-03-30T04:47:21;5.30;;;3.07;;
9374;SDS011;4727;51.202;6.344;2023-03-30T04:49:47;5.73;;;2.57;;
9374;SDS011;4727;51.202;6.344;2023-03-30T04:52:13;2.70;;;2.47;;
9374;SDS011;4727;51.202;6.344;2023-03-30T04:54:39;5.37;;;2.47;;
9374;SDS011;4727;51.202;6.344;2023-03-30T04:57:05;4.53;;;2.90;;
9374;SDS011;4727;51.202;6.344;2023-03-30T04:59:31;5.83;;;2.70;;
9374;SDS011;4727;51.202;6.344;2023-03-30T05:01:57;3.47;;;2.57;;
9374;SDS011;4727;51.202;6.344;2023-03-30T05:04:22;5.33;;;2.73;;
9374;SDS011;4727;51.202;6.344;2023-03-30T05:06:48;6.23;;;2.90;;
9374;SDS011;4727;51.202;6.344;2023-03-30T05:09:14;4.60;;;2.60;;
9374;SDS011;4727;51.202;6.344;2023-03-30T05:11:41;6.37;;;2.70;;
9374;SDS011;4727;51.202;6.344;2023-03-30T05:14:07;3.90;;;2.23;;
9374;SDS011;4727;51.202;6.344;2023-03-30T05:16:33;5.97;;;2.40;;
9374;SDS011;4727;51.202;6.344;2023-03-30T05:18:58;2.40;;;2.17;;
9374;SDS011;4727;51.202;6.344;2023-03-30T05:21:24;3.07;;;2.10;;
9374;SDS011;4727;51.202;6.344;2023-03-30T05:23:49;3.97;;;2.77;;
9374;SDS011;4727;51.202;6.344;2023-03-30T05:26:15;4.73;;;2.70;;
9374;SDS011;4727;51.202;6.344;2023-03-30T05:28:41;1.80;;;1.70;;
9374;SDS011;4727;51.202;6.344;2023-03-30T05:31:07;2.67;;;2.10;;
9374;SDS011;4727;51.202;6.344;2023-03-30T05:33:33;2.30;;;1.67;;
9374;SDS011;4727;51.202;6.344;2023-03-30T05:35:58;5.10;;;2.20;;
9374;SDS011;4727;51.202;6.344;2023-03-30T05:38:24;4.90;;;2.30;;
9374;SDS011;4727;51.202;6.344;2023-03-30T05:40:53;3.40;;;2.07;;
9374;SDS011;4727;51.202;6.344;2023-03-30T05:43:19;2.17;;;1.80;;
9374;SDS011;4727;51.202;6.344;2023-03-30T05:45:45;4.73;;;2.40;;
9374;SDS011;4727;51.202;6.344;2023-03-30T05:48:11;3.33;;;2.10;;
9374;SDS011;4727;51.202;6.344;2023-03-30T05:50:37;4.77;;;2.40;;
9374;SDS011;4727;51.202;6.344;2023-03-30T05:53:02;2.93;;;2.30;;
9374;SDS011;4727;51.202;6.344;2023-03-30T05:55:28;5.07;;;2.10;;
9374;SDS011;4727;51.202;6.344;2023-03-30T05:57:54;3.93;;;2.27;;
9374;SDS011;4727;51.202;6.344;2023-03-30T06:00:20;4.30;;;2.77;;
9374;SDS011;4727;51.202;6.344;2023-03-30T06:02:46;2.13;;;2.03;;
9374;SDS011;4727;51.202;6.344;2023-03-30T06:05:12;6.07;;;2.47;;
9374;SDS011;4727;51.202;6.344;2023-03-30T06:07:38;3.10;;;2.40;;
9374;SDS011;4727;51.202;6.344;2023-03-30T06:10:05;4.57;;;2.73;;
9374;SDS011;4727;51.202;6.344;2023-03-30T06:12:31;4.00;;;2.73;;
9374;SDS011;4727;51.202;6.344;2023-03-30T06:14:57;2.90;;;2.50;;
9374;SDS011;4727;51.202;6.344;2023-03-30T06:17:26;4.53;;;2.63;;
9374;SDS011;4727;51.202;6.344;2023-03-30T06:19:52;4.97;;;2.37;;
9374;SDS011;4727;51.202;6.344;2023-03-30T06:22:18;3.07;;;2.73;;
9374;SDS011;4727;51.202;6.344;2023-03-30T06:24:45;4.83;;;2.80;;
9374;SDS011;4727;51.202;6.344;2023-03-30T06:27:11;3.43;;;2.53;;
9374;SDS011;4727;51.202;6.344;2023-03-30T06:29:37;5.63;;;2.77;;
9374;SDS011;4727;51.202;6.344;2023-03-30T06:32:02;6.00;;;2.47;;
9374;SDS011;4727;51.202;6.344;2023-03-30T06:34:28;4.77;;;2.40;;
9374;SDS011;4727;51.202;6.344;2023-03-30T06:36:54;4.63;;;2.57;;
9374;SDS011;4727;51.202;6.344;2023-03-30T06:39:20;5.23;;;2.67;;
9374;SDS011;4727;51.202;6.344;2023-03-30T06:41:46;3.37;;;2.47;;
9374;SDS011;4727;51.202;6.344;2023-03-30T06:44:12;4.07;;;2.27;;
9374;SDS011;4727;51.202;6.344;2023-03-30T06:46:39;3.40;;;2.03;;
9374;SDS011;4727;51.202;6.344;2023-03-30T06:49:06;2.80;;;2.40;;
9374;SDS011;4727;51.202;6.344;2023-03-30T06:51:32;5.50;;;2.50;;
9374;SDS011;4727;51.202;6.344;2023-03-30T06:54:01;2.93;;;2.57;;
9374;SDS011;4727;51.202;6.344;2023-03-30T06:56:27;5.77;;;2.50;;
9374;SDS011;4727;51.202;6.344;2023-03-30T06:58:52;2.20;;;1.93;;
9374;SDS011;4727;51.202;6.344;2023-03-30T07:01:18;2.80;;;2.23;;
9374;SDS011;4727;51.202;6.344;2023-03-30T07:03:44;3.70;;;2.17;;
9374;SDS011;4727;51.202;6.344;2023-03-30T07:06:09;3.83;;;2.20;;
9374;SDS011;4727;51.202;6.344;2023-03-30T07:08:36;5.03;;;2.10;;
9374;SDS011;4727;51.202;6.344;2023-03-30T07:11:03;5.70;;;2.57;;
9374;SDS011;4727;51.202;6.344;2023-03-30T07:13:29;3.07;;;2.20;;
9374;SDS011;4727;51.202;6.344;2023-03-30T07:15:55;3.53;;;2.13;;
9374;SDS011;4727;51.202;6.344;2023-03-30T07:18:20;5.17;;;2.20;;
9374;SDS011;4727;51.202;6.344;2023-03-30T07:20:46;5.43;;;2.07;;
9374;SDS011;4727;51.202;6.344;2023-03-30T07:23:11;3.90;;;2.37;;
9374;SDS011;4727;51.202;6.344;2023-03-30T07:25:38;3.77;;;2.13;;
9374;SDS011;4727;51.202;6.344;2023-03-30T07:28:04;3.97;;;2.10;;
9374;SDS011;4727;51.202;6.344;2023-03-30T07:30:33;3.20;;;2.23;;
9374;SDS011;4727;51.202;6.344;2023-03-30T07:32:59;3.83;;;2.00;;
9374;SDS011;4727;51.202;6.344;2023-03-30T07:35:24;4.63;;;2.07;;
9374;SDS011;4727;51.202;6.344;2023-03-30T07:37:51;4.17;;;2.53;;
9374;SDS011;4727;51.202;6.344;2023-03-30T07:40:17;6.13;;;3.00;;
9374;SDS011;4727;51.202;6.344;2023-03-30T07:42:43;4.63;;;2.23;;
9374;SDS011;4727;51.202;6.344;2023-03-30T07:45:08;5.73;;;2.87;;
9374;SDS011;4727;51.202;6.344;2023-03-30T07:47:34;6.30;;;2.90;;
9374;SDS011;4727;51.202;6.344;2023-03-30T07:50:01;4.37;;;2.40;;
9374;SDS011;4727;51.202;6.344;2023-03-30T07:52:27;9.53;;;2.70;;
9374;SDS011;4727;51.202;6.344;2023-03-30T07:54:54;6.63;;;2.67;;
9374;SDS011;4727;51.202;6.344;2023-03-30T07:57:20;5.63;;;2.80;;
9374;SDS011;4727;51.202;6.344;2023-03-30T07:59:46;6.10;;;2.37;;
9374;SDS011;4727;51.202;6.344;2023-03-30T08:02:13;8.60;;;3.20;;
9374;SDS011;4727;51.202;6.344;2023-03-30T08:04:39;9.80;;;2.77;;
9374;SDS011;4727;51.202;6.344;2023-03-30T08:07:05;6.13;;;2.60;;
9374;SDS011;4727;51.202;6.344;2023-03-30T08:09:32;6.83;;;3.07;;
9374;SDS011;4727;51.202;6.344;2023-03-30T08:11:58;4.70;;;2.60;;
9374;SDS011;4727;51.202;6.344;2023-03-30T08:14:24;6.70;;;2.90;;
9374;SDS011;4727;51.202;6.344;2023-03-30T08:16:51;6.13;;;2.90;;
9374;SDS011;4727;51.202;6.344;2023-03-30T08:19:17;5.50;;;2.67;;
9374;SDS011;4727;51.202;6.344;2023-03-30T08:21:44;7.13;;;3.27;;
9374;SDS011;4727;51.202;6.344;2023-03-30T08:24:09;6.80;;;2.80;;
9374;SDS011;4727;51.202;6.344;2023-03-30T08:26:36;7.63;;;2.73;;
9374;SDS011;4727;51.202;6.344;2023-03-30T08:29:02;8.43;;;2.73;;
9374;SDS011;4727;51.202;6.344;2023-03-30T08:31:28;10.20;;;3.23;;
9374;SDS011;4727;51.202;6.344;2023-03-30T08:33:56;6.60;;;3.03;;
9374;SDS011;4727;51.202;6.344;2023-03-30T08:36:23;4.87;;;2.43;;
9374;SDS011;4727;51.202;6.344;2023-03-30T08:38:49;5.40;;;2.60;;
9374;SDS011;4727;51.202;6.344;2023-03-30T08:46:34;7.40;;;2.67;;
9374;SDS011;4727;51.202;6.344;2023-03-30T08:49:00;8.23;;;3.30;;
9374;SDS011;4727;51.202;6.344;2023-03-30T08:51:31;7.20;;;2.63;;
9374;SDS011;4727;51.202;6.344;2023-03-30T08:53:58;5.37;;;2.50;;
9374;SDS011;4727;51.202;6.344;2023-03-30T09:01:49;5.57;;;3.03;;
9374;SDS011;4727;51.202;6.344;2023-03-30T09:07:13;7.40;;;3.00;;
9374;SDS011;4727;51.202;6.344;2023-03-30T09:09:46;6.80;;;3.00;;
9374;SDS011;4727;51.202;6.344;2023-03-30T09:15:02;4.73;;;2.63;;
9374;SDS011;4727;51.202;6.344;2023-03-30T09:17:36;6.30;;;2.67;;
9374;SDS011;4727;51.202;6.344;2023-03-30T09:20:28;5.40;;;2.50;;
9374;SDS011;4727;51.202;6.344;2023-03-30T09:22:58;8.43;;;2.60;;
9374;SDS011;4727;51.202;6.344;2023-03-30T09:30:45;8.87;;;3.00;;
9374;SDS011;4727;51.202;6.344;2023-03-30T09:36:16;7.60;;;3.07;;
9374;SDS011;4727;51.202;6.344;2023-03-30T09:39:16;6.03;;;2.90;;
9374;SDS011;4727;51.202;6.344;2023-03-30T09:41:50;8.13;;;3.47;;
9374;SDS011;4727;51.202;6.344;2023-03-30T09:44:41;5.90;;;2.50;;
9374;SDS011;4727;51.202;6.344;2023-03-30T09:47:36;6.53;;;3.07;;
9374;SDS011;4727;51.202;6.344;2023-03-30T09:50:07;10.40;;;3.20;;
9374;SDS011;4727;51.202;6.344;2023-03-30T09:52:37;6.20;;;3.33;;
9374;SDS011;4727;51.202;6.344;2023-03-30T09:57:45;5.43;;;2.80;;
9374;SDS011;4727;51.202;6.344;2023-03-30T10:02:56;6.53;;;3.00;;
9374;SDS011;4727;51.202;6.344;2023-03-30T10:05:26;7.53;;;3.13;;
9374;SDS011;4727;51.202;6.344;2023-03-30T10:08:03;10.30;;;3.63;;
9374;SDS011;4727;51.202;6.344;2023-03-30T10:10:36;7.60;;;3.40;;
9374;SDS011;4727;51.202;6.344;2023-03-30T10:13:07;4.93;;;3.10;;
9374;SDS011;4727;51.202;6.344;2023-03-30T10:15:38;9.80;;;3.63;;
9374;SDS011;4727;51.202;6.344;2023-03-30T10:20:44;9.17;;;4.27;;
9374;SDS011;4727;51.202;6.344;2023-03-30T10:23:16;8.60;;;3.73;;
9374;SDS011;4727;51.202;6.344;2023-03-30T10:25:43;6.63;;;2.80;;
9374;SDS011;4727;51.202;6.344;2023-03-30T10:28:15;5.60;;;3.30;;
9374;SDS011;4727;51.202;6.344;2023-03-30T10:30:50;6.03;;;2.93;;
9374;SDS011;4727;51.202;6.344;2023-03-30T10:33:28;7.33;;;3.37;;
9374;SDS011;4727;51.202;6.344;2023-03-30T10:35:55;5.13;;;2.90;;
9374;SDS011;4727;51.202;6.344;2023-03-30T10:38:24;8.07;;;3.60;;
9374;SDS011;4727;51.202;6.344;2023-03-30T10:40:59;6.17;;;3.67;;
9374;SDS011;4727;51.202;6.344;2023-03-30T10:43:29;5.00;;;2.33;;
9374;SDS011;4727;51.202;6.344;2023-03-30T10:45:56;5.87;;;3.00;;
9374;SDS011;4727;51.202;6.344;2023-03-30T10:51:26;6.83;;;2.60;;
9374;SDS011;4727;51.202;6.344;2023-03-30T10:56:32;6.73;;;2.60;;
9374;SDS011;4727;51.202;6.344;2023-03-30T11:01:59;4.53;;;2.63;;
9374;SDS011;4727;51.202;6.344;2023-03-30T11:04:58;8.17;;;2.70;;
9374;SDS011;4727;51.202;6.344;2023-03-30T11:07:29;4.37;;;2.80;;
9374;SDS011;4727;51.202;6.344;2023-03-30T11:10:10;7.97;;;3.10;;
9374;SDS011;4727;51.202;6.344;2023-03-30T11:12:46;5.87;;;2.47;;
9374;SDS011;4727;51.202;6.344;2023-03-30T11:15:21;6.97;;;2.83;;
9374;SDS011;4727;51.202;6.344;2023-03-30T11:20:39;5.87;;;2.57;;
9374;SDS011;4727;51.202;6.344;2023-03-30T11:23:17;3.93;;;2.53;;
9374;SDS011;4727;51.202;6.344;2023-03-30T11:28:27;7.10;;;2.93;;
9374;SDS011;4727;51.202;6.344;2023-03-30T11:34:27;6.10;;;2.67;;
9374;SDS011;4727;51.202;6.344;2023-03-30T11:40:01;7.00;;;3.40;;
9374;SDS011;4727;51.202;6.344;2023-03-30T11:42:37;6.20;;;2.80;;
9374;SDS011;4727;51.202;6.344;2023-03-30T11:45:17;6.57;;;2.60;;
9374;SDS011;4727;51.202;6.344;2023-03-30T11:53:22;3.23;;;2.30;;
9374;SDS011;4727;51.202;6.344;2023-03-30T11:56:15;3.53;;;2.10;;
9374;SDS011;4727;51.202;6.344;2023-03-30T12:04:01;4.70;;;2.70;;
9374;SDS011;4727;51.202;6.344;2023-03-30T12:09:26;3.93;;;2.83;;
9374;SDS011;4727;51.202;6.344;2023-03-30T12:12:12;5.63;;;3.20;;
9374;SDS011;4727;51.202;6.344;2023-03-30T12:19:46;6.73;;;2.97;;
9374;SDS011;4727;51.202;6.344;2023-03-30T12:22:24;5.37;;;3.20;;
9374;SDS011;4727;51.202;6.344;2023-03-30T12:24:57;4.43;;;2.20;;
9374;SDS011;4727;51.202;6.344;2023-03-30T12:30:26;3.17;;;2.20;;
9374;SDS011;4727;51.202;6.344;2023-03-30T12:33:02;4.17;;;2.27;;
9374;SDS011;4727;51.202;6.344;2023-03-30T12:38:22;2.90;;;2.03;;
9374;SDS011;4727;51.202;6.344;2023-03-30T12:41:11;4.03;;;2.23;;
9374;SDS011;4727;51.202;6.344;2023-03-30T12:46:26;5.47;;;2.30;;
9374;SDS011;4727;51.202;6.344;2023-03-30T12:52:12;8.47;;;2.70;;
9374;SDS011;4727;51.202;6.344;2023-03-30T12:54:52;5.27;;;2.50;;
9374;SDS011;4727;51.202;6.344;2023-03-30T13:05:53;3.80;;;2.43;;
9374;SDS011;4727;51.202;6.344;2023-03-30T13:10:49;6.47;;;2.87;;
9374;SDS011;4727;51.202;6.344;2023-03-30T13:13:43;5.20;;;2.47;;
9374;SDS011;4727;51.202;6.344;2023-03-30T13:16:12;6.67;;;2.60;;
9374;SDS011;4727;51.202;6.344;2023-03-30T13:18:40;5.33;;;2.33;;
9374;SDS011;4727;51.202;6.344;2023-03-30T13:21:24;5.67;;;2.40;;
9374;SDS011;4727;51.202;6.344;2023-03-30T13:24:01;6.03;;;2.47;;
9374;SDS011;4727;51.202;6.344;2023-03-30T13:26:38;6.20;;;2.87;;
9374;SDS011;4727;51.202;6.344;2023-03-30T13:29:09;6.17;;;2.80;;
9374;SDS011;4727;51.202;6.344;2023-03-30T13:37:40;7.27;;;2.40;;
9374;SDS011;4727;51.202;6.344;2023-03-30T13:40:16;5.37;;;2.17;;
9374;SDS011;4727;51.202;6.344;2023-03-30T13:42:49;4.80;;;2.10;;
9374;SDS011;4727;51.202;6.344;2023-03-30T13:48:30;4.13;;;2.07;;
9374;SDS011;4727;51.202;6.344;2023-03-30T13:51:13;7.27;;;3.27;;
9374;SDS011;4727;51.202;6.344;2023-03-30T13:53:42;5.23;;;2.30;;
9374;SDS011;4727;51.202;6.344;2023-03-30T13:56:21;4.57;;;2.33;;
9374;SDS011;4727;51.202;6.344;2023-03-30T13:58:55;6.77;;;2.93;;
9374;SDS011;4727;51.202;6.344;2023-03-30T14:01:30;8.30;;;2.83;;
9374;SDS011;4727;51.202;6.344;2023-03-30T14:03:56;7.07;;;3.43;;
9374;SDS011;4727;51.202;6.344;2023-03-30T14:06:25;6.93;;;3.37;;
9374;SDS011;4727;51.202;6.344;2023-03-30T14:11:36;6.60;;;2.27;;
9374;SDS011;4727;51.202;6.344;2023-03-30T14:14:03;8.13;;;2.40;;
9374;SDS011;4727;51.202;6.344;2023-03-30T14:16:31;4.37;;;1.87;;
9374;SDS011;4727;51.202;6.344;2023-03-30T14:19:07;5.53;;;2.60;;
9374;SDS011;4727;51.202;6.344;2023-03-30T14:21:34;6.43;;;2.20;;
9374;SDS011;4727;51.202;6.344;2023-03-30T14:24:00;7.80;;;3.00;;
9374;SDS011;4727;51.202;6.344;2023-03-30T14:26:28;6.53;;;2.50;;
9374;SDS011;4727;51.202;6.344;2023-03-30T14:28:55;7.37;;;2.40;;
9374;SDS011;4727;51.202;6.344;2023-03-30T14:31:22;8.13;;;2.93;;
9374;SDS011;4727;51.202;6.344;2023-03-30T14:33:51;7.17;;;2.40;;
9374;SDS011;4727;51.202;6.344;2023-03-30T14:36:17;7.00;;;2.87;;
9374;SDS011;4727;51.202;6.344;2023-03-30T14:38:45;8.03;;;2.40;;
9374;SDS011;4727;51.202;6.344;2023-03-30T14:41:14;7.10;;;2.93;;
9374;SDS011;4727;51.202;6.344;2023-03-30T14:44:04;10.47;;;3.27;;
9374;SDS011;4727;51.202;6.344;2023-03-30T14:46:38;6.50;;;2.90;;
9374;SDS011;4727;51.202;6.344;2023-03-30T14:49:06;4.70;;;2.33;;
9374;SDS011;4727;51.202;6.344;2023-03-30T14:51:42;6.60;;;2.97;;
9374;SDS011;4727;51.202;6.344;2023-03-30T14:54:20;6.07;;;2.80;;
9374;SDS011;4727;51.202;6.344;2023-03-30T14:56:50;6.43;;;3.00;;
9374;SDS011;4727;51.202;6.344;2023-03-30T14:59:21;6.60;;;3.00;;
9374;SDS011;4727;51.202;6.344;2023-03-30T15:01:48;7.53;;;3.13;;
9374;SDS011;4727;51.202;6.344;2023-03-30T15:04:24;8.10;;;3.23;;
9374;SDS011;4727;51.202;6.344;2023-03-30T15:06:53;10.63;;;3.27;;
9374;SDS011;4727;51.202;6.344;2023-03-30T15:09:20;8.67;;;2.93;;
9374;SDS011;4727;51.202;6.344;2023-03-30T15:11:54;8.93;;;3.20;;
9374;SDS011;4727;51.202;6.344;2023-03-30T15:14:23;7.73;;;3.97;;
9374;SDS011;4727;51.202;6.344;2023-03-30T15:16:49;8.47;;;3.00;;
9374;SDS011;4727;51.202;6.344;2023-03-30T15:19:33;9.23;;;3.20;;
9374;SDS011;4727;51.202;6.344;2023-03-30T15:22:06;3.50;;;2.30;;
9374;SDS011;4727;51.202;6.344;2023-03-30T15:24:41;6.43;;;2.60;;
9374;SDS011;4727;51.202;6.344;2023-03-30T15:27:07;8.10;;;3.10;;
9374;SDS011;4727;51.202;6.344;2023-03-30T15:29:35;6.00;;;2.37;;
9374;SDS011;4727;51.202;6.344;2023-03-30T15:32:14;4.37;;;1.90;;
9374;SDS011;4727;51.202;6.344;2023-03-30T15:37:29;5.90;;;2.40;;
9374;SDS011;4727;51.202;6.344;2023-03-30T15:39:55;5.90;;;2.70;;
9374;SDS011;4727;51.202;6.344;2023-03-30T15:42:27;5.63;;;2.33;;
9374;SDS011;4727;51.202;6.344;2023-03-30T15:47:49;8.30;;;2.80;;
9374;SDS011;4727;51.202;6.344;2023-03-30T15:50:23;4.90;;;2.50;;
9374;SDS011;4727;51.202;6.344;2023-03-30T15:52:50;7.27;;;2.80;;
9374;SDS011;4727;51.202;6.344;2023-03-30T15:55:26;3.63;;;2.43;;
9374;SDS011;4727;51.202;6.344;2023-03-30T15:57:54;6.13;;;2.70;;
9374;SDS011;4727;51.202;6.344;2023-03-30T16:00:21;7.67;;;2.67;;
9374;SDS011;4727;51.202;6.344;2023-03-30T16:02:53;7.23;;;2.37;;
9374;SDS011;4727;51.202;6.344;2023-03-30T16:05:25;8.63;;;2.80;;
9374;SDS011;4727;51.202;6.344;2023-03-30T16:07:52;5.37;;;2.90;;
9374;SDS011;4727;51.202;6.344;2023-03-30T16:10:19;5.37;;;2.60;;
9374;SDS011;4727;51.202;6.344;2023-03-30T16:12:51;6.00;;;2.23;;
9374;SDS011;4727;51.202;6.344;2023-03-30T16:15:20;6.60;;;2.80;;
9374;SDS011;4727;51.202;6.344;2023-03-30T16:17:48;6.73;;;2.40;;
9374;SDS011;4727;51.202;6.344;2023-03-30T16:20:14;6.00;;;2.57;;
9374;SDS011;4727;51.202;6.344;2023-03-30T16:22:42;7.10;;;2.40;;
9374;SDS011;4727;51.202;6.344;2023-03-30T16:25:08;7.77;;;2.70;;
9374;SDS011;4727;51.202;6.344;2023-03-30T16:27:34;7.47;;;2.90;;
9374;SDS011;4727;51.202;6.344;2023-03-30T16:30:01;6.13;;;3.23;;
9374;SDS011;4727;51.202;6.344;2023-03-30T16:32:35;7.00;;;3.53;;
9374;SDS011;4727;51.202;6.344;2023-03-30T16:35:01;6.57;;;2.83;;
9374;SDS011;4727;51.202;6.344;2023-03-30T16:37:27;11.50;;;3.33;;
9374;SDS011;4727;51.202;6.344;2023-03-30T16:39:53;14.23;;;3.53;;
9374;SDS011;4727;51.202;6.344;2023-03-30T16:42:19;9.43;;;3.50;;
9374;SDS011;4727;51.202;6.344;2023-03-30T16:44:45;7.17;;;3.27;;
9374;SDS011;4727;51.202;6.344;2023-03-30T16:47:11;6.80;;;2.90;;
9374;SDS011;4727;51.202;6.344;2023-03-30T16:49:38;7.60;;;3.13;;
9374;SDS011;4727;51.202;6.344;2023-03-30T16:52:04;8.43;;;3.80;;
9374;SDS011;4727;51.202;6.344;2023-03-30T16:54:41;8.83;;;3.00;;
9374;SDS011;4727;51.202;6.344;2023-03-30T16:57:10;6.93;;;3.57;;
9374;SDS011;4727;51.202;6.344;2023-03-30T16:59:36;12.97;;;7.50;;
9374;SDS011;4727;51.202;6.344;2023-03-30T17:02:10;19.40;;;10.70;;
9374;SDS011;4727;51.202;6.344;2023-03-30T17:04:44;20.57;;;10.47;;
9374;SDS011;4727;51.202;6.344;2023-03-30T17:07:13;14.10;;;8.73;;
9374;SDS011;4727;51.202;6.344;2023-03-30T17:09:49;7.93;;;4.27;;
9374;SDS011;4727;51.202;6.344;2023-03-30T17:12:21;7.00;;;3.57;;
9374;SDS011;4727;51.202;6.344;2023-03-30T17:15:00;13.37;;;7.20;;
9374;SDS011;4727;51.202;6.344;2023-03-30T17:17:32;13.87;;;8.70;;
9374;SDS011;4727;51.202;6.344;2023-03-30T17:20:01;21.37;;;11.37;;
9374;SDS011;4727;51.202;6.344;2023-03-30T17:22:57;9.73;;;6.30;;
9374;SDS011;4727;51.202;6.344;2023-03-30T17:25:23;10.03;;;6.03;;
9374;SDS011;4727;51.202;6.344;2023-03-30T17:27:50;7.37;;;3.90;;
9374;SDS011;4727;51.202;6.344;2023-03-30T17:30:17;14.13;;;8.60;;
9374;SDS011;4727;51.202;6.344;2023-03-30T17:32:49;15.97;;;8.90;;
9374;SDS011;4727;51.202;6.344;2023-03-30T17:35:16;9.20;;;5.43;;
9374;SDS011;4727;51.202;6.344;2023-03-30T17:37:44;23.07;;;10.93;;
9374;SDS011;4727;51.202;6.344;2023-03-30T17:40:14;12.20;;;6.33;;
9374;SDS011;4727;51.202;6.344;2023-03-30T17:42:51;26.70;;;15.07;;
9374;SDS011;4727;51.202;6.344;2023-03-30T17:45:18;36.90;;;19.57;;
9374;SDS011;4727;51.202;6.344;2023-03-30T17:47:46;22.00;;;12.40;;
9374;SDS011;4727;51.202;6.344;2023-03-30T17:50:23;10.50;;;7.50;;
9374;SDS011;4727;51.202;6.344;2023-03-30T17:52:51;6.77;;;4.57;;
9374;SDS011;4727;51.202;6.344;2023-03-30T17:55:19;6.17;;;3.70;;